Time;durP1;ratioP1;P1;durP2;ratioP2;P2;SDS_P1;SDS_P2;PMS_P1;PMS_P2;Temp;Humidity;BMP_temperature;BMP_pressure;BME280_temperature;BME280_humidity;BME280_pressure;Samples;Min_cycle;Max_cycle;Signal;HPM_P1;HPM_P2
2021/01/31 00:07:07;;;;;;;5.07;3.03;;;0.90;99.90;;;;;;20905931;28;20049;-58
2021/01/31 00:17:08;;;;;;;4.50;2.67;;;0.80;99.90;;;;;;20842473;28;20391;-59
2021/01/31 00:27:10;;;;;;;5.00;2.03;;;0.80;99.90;;;;;;20943690;28;20064;-60
2021/01/31 00:37:14;;;;;;;6.55;2.08;;;0.70;99.90;;;;;;20880709;28;20028;-59
2021/01/31 00:47:18;;;;;;;3.58;1.80;;;0.70;99.90;;;;;;20895745;28;20045;-60
2021/01/31 00:57:20;;;;;;;3.70;1.98;;;0.70;99.90;;;;;;20893830;28;20090;-60
2021/01/31 01:07:22;;;;;;;2.95;1.00;;;0.70;99.90;;;;;;20894039;28;20049;-60
2021/01/31 01:17:24;;;;;;;2.65;1.10;;;0.70;99.90;;;;;;20893033;28;20033;-59
2021/01/31 01:27:26;;;;;;;1.80;0.70;;;0.80;99.90;;;;;;20909665;28;20045;-60
2021/01/31 01:37:28;;;;;;;1.50;0.52;;;0.80;99.90;;;;;;20891351;28;20032;-61
2021/01/31 01:47:30;;;;;;;0.47;0.22;;;0.70;99.90;;;;;;20908695;28;20076;-60
2021/01/31 01:57:55;;;;;;;0.10;0.10;;;0.70;99.90;;;;;;20865797;28;20483;-60
2021/01/31 02:07:58;;;;;;;0.17;0.00;;;0.70;99.90;;;;;;20889221;28;20056;-60
2021/01/31 02:18:03;;;;;;;1.65;0.03;;;0.70;99.90;;;;;;20870848;28;20041;-59
2021/01/31 02:28:22;;;;;;;0.80;0.00;;;0.70;99.90;;;;;;20887670;28;20060;-58
2021/01/31 02:38:42;;;;;;;8.75;0.20;;;0.70;99.90;;;;;;20889162;28;20518;-59
2021/01/31 02:49:08;;;;;;;0.30;0.00;;;0.70;99.90;;;;;;20932860;28;20075;-59
2021/01/31 02:59:35;;;;;;;2.42;0.08;;;0.70;99.90;;;;;;20904355;28;20071;-59
2021/01/31 03:09:53;;;;;;;0.00;0.00;;;0.70;99.90;;;;;;20902595;28;20045;-58
2021/01/31 03:20:10;;;;;;;0.00;0.00;;;0.80;99.90;;;;;;20903612;28;20033;-58
2021/01/31 03:30:15;;;;;;;0.00;0.00;;;0.90;99.90;;;;;;20918963;28;20081;-57
2021/01/31 03:40:18;;;;;;;0.10;0.00;;;0.90;99.90;;;;;;20918638;28;20067;-57
2021/01/31 03:50:20;;;;;;;0.10;0.00;;;0.90;99.90;;;;;;20909352;28;20419;-55
2021/01/31 04:00:28;;;;;;;0.22;0.13;;;0.90;99.90;;;;;;20916604;28;20548;-63
2021/01/31 04:10:30;;;;;;;0.43;0.10;;;1.00;99.90;;;;;;20875976;28;20057;-59
2021/01/31 04:20:33;;;;;;;0.17;0.10;;;1.00;99.90;;;;;;20914455;28;20049;-59
2021/01/31 04:30:39;;;;;;;0.20;0.10;;;1.10;99.90;;;;;;20951882;28;20036;-60
2021/01/31 04:40:41;;;;;;;1.85;0.22;;;1.10;99.90;;;;;;20936811;28;20483;-58
2021/01/31 04:50:54;;;;;;;0.20;0.15;;;1.20;99.90;;;;;;20905608;28;20099;-58
2021/01/31 05:01:08;;;;;;;0.20;0.10;;;1.10;99.90;;;;;;20944576;28;20033;-59
2021/01/31 05:11:18;;;;;;;0.30;0.10;;;1.10;99.90;;;;;;20857484;28;20488;-58
2021/01/31 05:21:24;;;;;;;0.22;0.10;;;1.30;99.90;;;;;;20828086;28;20545;-59
2021/01/31 05:31:33;;;;;;;0.40;0.10;;;1.50;99.90;;;;;;20828160;28;20049;-59
2021/01/31 05:41:48;;;;;;;0.93;0.10;;;1.50;99.90;;;;;;20826707;28;20099;-58
2021/01/31 05:51:50;;;;;;;0.38;0.10;;;1.70;99.90;;;;;;20866854;28;20041;-59
2021/01/31 06:02:02;;;;;;;0.40;0.15;;;1.60;99.90;;;;;;20827068;28;20387;-59
2021/01/31 06:12:12;;;;;;;1.08;0.30;;;1.50;99.90;;;;;;20824228;28;20050;-58
2021/01/31 06:22:15;;;;;;;0.55;0.25;;;1.60;99.90;;;;;;20823892;28;20484;-59
2021/01/31 06:32:21;;;;;;;0.20;0.10;;;1.60;99.90;;;;;;20791253;28;20037;-59
2021/01/31 06:42:55;;;;;;;0.65;0.20;;;1.70;99.90;;;;;;20821835;28;20030;-59
2021/01/31 06:53:15;;;;;;;1.38;0.30;;;1.80;99.90;;;;;;20806900;28;20128;-59
2021/01/31 07:03:39;;;;;;;0.77;0.10;;;1.90;99.90;;;;;;20825567;28;20059;-59
2021/01/31 07:13:52;;;;;;;0.17;0.10;;;2.10;99.90;;;;;;20808101;28;20064;-59
2021/01/31 07:23:59;;;;;;;0.10;0.10;;;2.20;99.90;;;;;;20851944;28;20453;-59
2021/01/31 07:34:09;;;;;;;0.20;0.05;;;2.40;99.90;;;;;;20882327;28;20040;-59
2021/01/31 07:44:13;;;;;;;0.10;0.10;;;2.40;99.90;;;;;;20903479;28;20483;-59
2021/01/31 07:54:23;;;;;;;0.28;0.10;;;2.50;99.90;;;;;;20887682;28;20079;-59
2021/01/31 08:04:34;;;;;;;0.10;0.00;;;2.80;99.90;;;;;;20866472;28;20040;-60
2021/01/31 08:14:55;;;;;;;;;;;3.00;99.90;;;;;;20887419;28;20064;-59
2021/01/31 08:25:06;;;;;;;0.40;0.10;;;3.30;99.90;;;;;;20899423;28;19935;-59
2021/01/31 08:35:20;;;;;;;0.20;0.15;;;3.60;99.90;;;;;;20845186;28;20186;-60
2021/01/31 08:45:23;;;;;;;0.10;0.00;;;3.80;99.90;;;;;;20897518;28;20052;-60
2021/01/31 08:55:25;;;;;;;0.10;0.10;;;4.20;99.90;;;;;;20896775;28;20159;-61
2021/01/31 09:05:29;;;;;;;1.00;0.10;;;4.40;99.90;;;;;;20841684;28;20041;-60
2021/01/31 09:15:31;;;;;;;0.15;0.10;;;4.70;99.90;;;;;;20895771;28;20408;-60
2021/01/31 09:25:36;;;;;;;0.17;0.00;;;5.00;99.90;;;;;;20893192;28;20495;-61
2021/01/31 09:35:41;;;;;;;0.10;0.00;;;5.60;99.90;;;;;;20875172;28;20041;-61
2021/01/31 09:45:48;;;;;;;0.68;0.40;;;6.20;99.90;;;;;;20886788;28;20478;-61
2021/01/31 09:55:49;;;;;;;0.82;0.43;;;6.50;99.90;;;;;;20874068;28;20390;-60
2021/01/31 10:06:03;;;;;;;0.05;0.00;;;6.60;99.90;;;;;;20891760;28;20056;-61
2021/01/31 10:16:28;;;;;;;0.00;0.00;;;7.00;99.90;;;;;;20892253;28;20035;-61
2021/01/31 10:26:30;;;;;;;0.20;0.10;;;7.80;99.90;;;;;;20890410;28;20049;-61
2021/01/31 10:36:35;;;;;;;0.10;0.03;;;7.70;99.90;;;;;;20891282;28;20457;-61
2021/01/31 10:46:39;;;;;;;1.23;0.52;;;7.80;99.90;;;;;;20910227;28;20041;-62
2021/01/31 10:56:41;;;;;;;0.90;0.43;;;7.70;99.90;;;;;;20904235;28;20029;-62
2021/01/31 11:06:44;;;;;;;0.85;0.50;;;8.10;99.90;;;;;;20880540;28;20045;-63
2021/01/31 11:16:46;;;;;;;1.40;0.90;;;8.70;99.90;;;;;;20905483;28;20123;-62
2021/01/31 11:26:48;;;;;;;1.40;0.68;;;9.00;99.90;;;;;;20902984;28;20118;-63
2021/01/31 11:36:50;;;;;;;1.23;1.00;;;8.90;99.90;;;;;;20868882;28;20083;-63
2021/01/31 11:46:52;;;;;;;1.08;0.60;;;10.10;99.30;;;;;;20895978;28;20037;-63
2021/01/31 11:56:54;;;;;;;1.17;0.60;;;10.70;96.10;;;;;;20900763;28;20041;-63
2021/01/31 12:06:56;;;;;;;0.90;0.50;;;11.40;93.50;;;;;;21023128;22;20495;-60
2021/01/31 12:16:58;;;;;;;0.80;0.60;;;11.00;93.30;;;;;;20800539;28;20060;-60
2021/01/31 12:27:00;;;;;;;2.25;1.70;;;11.00;91.60;;;;;;20765999;28;20045;-58
2021/01/31 12:37:02;;;;;;;2.17;1.75;;;10.10;95.00;;;;;;20857656;28;20461;-61
2021/01/31 12:47:04;;;;;;;2.20;1.58;;;9.90;95.40;;;;;;20815807;28;20436;-60
2021/01/31 12:57:07;;;;;;;2.30;1.65;;;9.80;95.70;;;;;;20789340;28;20387;-58
2021/01/31 13:07:09;;;;;;;2.92;2.00;;;8.80;97.80;;;;;;20811111;28;20454;-57
2021/01/31 13:17:11;;;;;;;1.73;1.23;;;8.20;99.60;;;;;;20813532;28;20472;-56
2021/01/31 13:27:14;;;;;;;2.00;1.60;;;9.10;99.10;;;;;;20794660;28;20096;-55
2021/01/31 13:37:16;;;;;;;3.03;1.70;;;9.50;98.10;;;;;;20777305;28;20029;-57
2021/01/31 13:47:17;;;;;;;2.70;2.30;;;9.80;97.20;;;;;;20798655;28;20205;-59
2021/01/31 13:57:21;;;;;;;3.72;2.45;;;9.60;97.90;;;;;;20680988;28;20103;-62
2021/01/31 14:07:23;;;;;;;3.20;2.38;;;9.80;98.40;;;;;;20677811;28;20054;-59
2021/01/31 14:17:26;;;;;;;4.25;3.00;;;10.80;96.50;;;;;;20613875;28;20094;-58
2021/01/31 14:27:29;;;;;;;5.35;3.88;;;10.70;95.50;;;;;;20661613;28;20465;-59
2021/01/31 14:37:37;;;;;;;5.15;4.43;;;9.40;97.40;;;;;;20663478;28;20078;-59
2021/01/31 14:47:42;;;;;;;24.20;6.63;;;8.20;99.90;;;;;;20692694;28;20039;-61
2021/01/31 14:57:44;;;;;;;8.20;5.97;;;7.10;99.90;;;;;;20687654;28;20030;-59
2021/01/31 15:07:46;;;;;;;8.48;6.07;;;5.60;99.90;;;;;;20674265;28;20062;-58
2021/01/31 15:17:48;;;;;;;7.25;5.28;;;4.80;99.90;;;;;;20657359;28;20042;-63
2021/01/31 15:27:50;;;;;;;6.72;4.82;;;4.40;99.90;;;;;;20640501;28;20046;-58
2021/01/31 15:37:53;;;;;;;7.18;4.85;;;4.10;99.90;;;;;;20655895;28;20058;-59
2021/01/31 15:47:55;;;;;;;10.45;7.18;;;3.90;99.90;;;;;;20670256;28;20054;-58
2021/01/31 15:57:57;;;;;;;9.70;6.53;;;3.50;99.90;;;;;;20672272;28;20031;-59
2021/01/31 16:07:58;;;;;;;73.95;10.77;;;3.00;99.90;;;;;;20653145;28;20114;-59
2021/01/31 16:18:01;;;;;;;12.13;8.50;;;2.60;99.90;;;;;;20670971;28;20438;-59
2021/01/31 16:28:04;;;;;;;12.88;8.20;;;2.40;99.90;;;;;;20685143;28;20042;-59
2021/01/31 16:38:09;;;;;;;10.82;7.13;;;2.00;99.90;;;;;;20684665;28;20400;-58
2021/01/31 16:48:17;;;;;;;10.43;6.60;;;1.80;99.90;;;;;;20651871;28;20109;-59
2021/01/31 16:58:20;;;;;;;12.00;7.13;;;1.60;99.90;;;;;;20772290;28;20041;-58
2021/01/31 17:08:23;;;;;;;10.77;6.82;;;1.60;99.90;;;;;;20803427;28;20050;-60
2021/01/31 17:18:25;;;;;;;9.15;6.07;;;1.60;99.90;;;;;;20713645;28;20026;-59
2021/01/31 17:28:29;;;;;;;7.80;4.72;;;1.80;99.90;;;;;;20729748;28;20038;-60
2021/01/31 17:38:31;;;;;;;6.53;4.10;;;1.80;99.90;;;;;;20760102;28;20127;-60
2021/01/31 17:48:35;;;;;;;8.60;5.93;;;1.70;99.90;;;;;;20728557;28;20484;-58
2021/01/31 17:58:38;;;;;;;6.40;4.15;;;1.70;99.90;;;;;;20743929;28;20034;-58
2021/01/31 18:08:41;;;;;;;7.90;4.70;;;1.70;99.90;;;;;;20725945;28;20050;-58
2021/01/31 18:18:43;;;;;;;7.30;4.57;;;1.80;99.90;;;;;;20741599;28;20030;-59
2021/01/31 18:28:47;;;;;;;9.27;4.97;;;1.70;99.90;;;;;;20758542;28;20107;-60
2021/01/31 18:38:50;;;;;;;11.45;6.75;;;1.70;99.90;;;;;;20742755;28;20156;-58
2021/01/31 18:49:09;;;;;;;15.45;8.75;;;1.60;99.90;;;;;;20826070;23;20053;-59
2021/01/31 18:59:53;;;;;;;17.85;9.55;;;1.60;99.90;;;;;;20876720;23;20411;-56
2021/01/31 19:21:07;;;;;;;11.25;6.40;;;1.50;99.90;;;;;;20816311;28;20041;-56
2021/01/31 19:31:10;;;;;;;8.23;4.93;;;1.30;99.90;;;;;;20834818;28;20062;-56
2021/01/31 19:41:12;;;;;;;2.05;1.17;;;1.00;99.90;;;;;;20802743;28;20033;-55
2021/01/31 19:51:15;;;;;;;2.10;0.60;;;0.90;99.90;;;;;;20842596;28;20092;-55
2021/01/31 20:01:17;;;;;;;0.47;0.20;;;0.70;99.90;;;;;;20798325;28;20045;-56
2021/01/31 20:11:22;;;;;;;0.22;0.10;;;0.60;99.90;;;;;;20718752;28;20038;-54
2021/01/31 20:21:25;;;;;;;0.47;0.10;;;0.40;99.90;;;;;;20753049;28;20088;-55
2021/01/31 20:31:27;;;;;;;0.20;0.10;;;0.30;99.90;;;;;;20733406;28;20069;-55
2021/01/31 20:41:30;;;;;;;0.40;0.10;;;0.20;99.90;;;;;;20750486;28;20129;-59
2021/01/31 20:51:33;;;;;;;0.10;0.10;;;0.10;99.90;;;;;;20755576;28;20046;-56
2021/01/31 21:01:35;;;;;;;0.73;0.22;;;0.00;99.90;;;;;;20730966;28;20050;-52
2021/01/31 21:11:37;;;;;;;0.20;0.10;;;-0.10;99.90;;;;;;20730418;28;20108;-58
2021/01/31 21:21:39;;;;;;;0.20;0.10;;;0.00;99.90;;;;;;20730428;28;20100;-57
2021/01/31 21:31:41;;;;;;;0.00;0.00;;;-0.10;99.90;;;;;;20729440;28;20042;-55
2021/01/31 21:41:44;;;;;;;0.10;0.03;;;-0.10;99.90;;;;;;20728545;28;20033;-55
2021/01/31 21:51:46;;;;;;;0.63;0.00;;;-0.10;99.90;;;;;;20783476;28;20107;-56
2021/01/31 22:01:48;;;;;;;0.00;0.00;;;-0.10;99.90;;;;;;20744636;28;20061;-55
2021/01/31 22:11:50;;;;;;;0.00;0.00;;;0.00;99.90;;;;;;20713344;28;20103;-56
2021/01/31 22:21:54;;;;;;;0.10;0.00;;;0.00;99.90;;;;;;20758357;28;20053;-55
2021/01/31 22:31:57;;;;;;;0.00;0.00;;;0.00;99.90;;;;;;20744635;28;20088;-59
2021/01/31 22:41:59;;;;;;;0.20;0.00;;;-0.20;99.90;;;;;;20709099;28;20492;-55
2021/01/31 22:52:02;;;;;;;0.10;0.00;;;-0.20;99.90;;;;;;20764739;28;20465;-57
2021/01/31 23:02:04;;;;;;;0.22;0.08;;;-0.30;99.90;;;;;;20733689;28;20054;-57
2021/01/31 23:12:07;;;;;;;0.32;0.20;;;-0.30;99.90;;;;;;20756650;28;20077;-56
2021/01/31 23:22:10;;;;;;;0.30;0.10;;;-0.20;99.90;;;;;;20738627;28;20090;-57
2021/01/31 23:32:12;;;;;;;0.20;0.10;;;0.10;99.90;;;;;;20722240;28;20042;-56
2021/01/31 23:42:14;;;;;;;0.20;0.10;;;0.30;99.90;;;;;;20737624;28;20037;-57
2021/01/31 23:52:17;;;;;;;0.08;0.00;;;0.50;99.90;;;;;;20776696;28;20037;-56
